sensor_id;sensor_type;location;lat;lon;timestamp;P1;durP1;ratioP1;P2;durP2;ratioP2
26181;SDS011;13927;51.534;11.866;2022-08-01T00:01:03;7.68;;;5.38;;
26181;SDS011;13927;51.534;11.866;2022-08-01T00:03:29;5.28;;;4.78;;
26181;SDS011;13927;51.534;11.866;2022-08-01T00:05:55;5.57;;;5.07;;
26181;SDS011;13927;51.534;11.866;2022-08-01T00:08:21;6.22;;;5.72;;
26181;SDS011;13927;51.534;11.866;2022-08-01T00:10:46;5.10;;;4.60;;
26181;SDS011;13927;51.534;11.866;2022-08-01T00:13:13;4.93;;;4.45;;
26181;SDS011;13927;51.534;11.866;2022-08-01T00:15:39;5.20;;;4.70;;
26181;SDS011;13927;51.534;11.866;2022-08-01T00:18:05;6.05;;;5.25;;
26181;SDS011;13927;51.534;11.866;2022-08-01T00:20:31;5.20;;;4.70;;
26181;SDS011;13927;51.534;11.866;2022-08-01T00:22:58;5.53;;;4.82;;
26181;SDS011;13927;51.534;11.866;2022-08-01T00:25:23;5.47;;;5.05;;
26181;SDS011;13927;51.534;11.866;2022-08-01T00:27:49;5.72;;;4.70;;
26181;SDS011;13927;51.534;11.866;2022-08-01T00:30:15;5.25;;;4.50;;
26181;SDS011;13927;51.534;11.866;2022-08-01T00:32:41;5.68;;;5.00;;
26181;SDS011;13927;51.534;11.866;2022-08-01T00:35:08;6.28;;;5.50;;
26181;SDS011;13927;51.534;11.866;2022-08-01T00:37:35;5.82;;;5.25;;
26181;SDS011;13927;51.534;11.866;2022-08-01T00:40:00;6.22;;;5.47;;
26181;SDS011;13927;51.534;11.866;2022-08-01T00:42:28;5.80;;;5.30;;
26181;SDS011;13927;51.534;11.866;2022-08-01T00:44:54;5.93;;;5.43;;
26181;SDS011;13927;51.534;11.866;2022-08-01T00:47:20;6.65;;;6.05;;
26181;SDS011;13927;51.534;11.866;2022-08-01T00:49:46;6.28;;;5.68;;
26181;SDS011;13927;51.534;11.866;2022-08-01T00:52:12;6.47;;;5.88;;
26181;SDS011;13927;51.534;11.866;2022-08-01T00:54:38;6.25;;;5.75;;
26181;SDS011;13927;51.534;11.866;2022-08-01T00:57:04;5.65;;;5.10;;
26181;SDS011;13927;51.534;11.866;2022-08-01T00:59:31;6.05;;;5.50;;
26181;SDS011;13927;51.534;11.866;2022-08-01T01:01:58;5.68;;;5.10;;
26181;SDS011;13927;51.534;11.866;2022-08-01T01:04:24;5.93;;;5.40;;
26181;SDS011;13927;51.534;11.866;2022-08-01T01:07:08;6.07;;;5.20;;
26181;SDS011;13927;51.534;11.866;2022-08-01T01:15:35;6.38;;;5.68;;
26181;SDS011;13927;51.534;11.866;2022-08-01T01:18:26;9.27;;;6.53;;
26181;SDS011;13927;51.534;11.866;2022-08-01T01:23:53;8.63;;;6.43;;
26181;SDS011;13927;51.534;11.866;2022-08-01T01:26:57;8.75;;;6.30;;
26181;SDS011;13927;51.534;11.866;2022-08-01T01:29:55;6.55;;;5.82;;
26181;SDS011;13927;51.534;11.866;2022-08-01T01:35:13;8.30;;;6.40;;
26181;SDS011;13927;51.534;11.866;2022-08-01T01:37:46;7.22;;;6.10;;
26181;SDS011;13927;51.534;11.866;2022-08-01T01:40:17;7.18;;;6.20;;
26181;SDS011;13927;51.534;11.866;2022-08-01T01:42:45;7.53;;;5.82;;
26181;SDS011;13927;51.534;11.866;2022-08-01T01:45:12;6.22;;;5.65;;
26181;SDS011;13927;51.534;11.866;2022-08-01T01:47:39;6.05;;;5.10;;
26181;SDS011;13927;51.534;11.866;2022-08-01T01:50:06;4.88;;;4.47;;
26181;SDS011;13927;51.534;11.866;2022-08-01T01:52:35;6.22;;;4.70;;
26181;SDS011;13927;51.534;11.866;2022-08-01T01:55:05;5.82;;;5.13;;
26181;SDS011;13927;51.534;11.866;2022-08-01T01:57:37;5.53;;;4.80;;
26181;SDS011;13927;51.534;11.866;2022-08-01T02:00:07;5.82;;;4.93;;
26181;SDS011;13927;51.534;11.866;2022-08-01T02:02:39;6.30;;;4.40;;
26181;SDS011;13927;51.534;11.866;2022-08-01T02:05:10;4.93;;;4.40;;
26181;SDS011;13927;51.534;11.866;2022-08-01T02:07:38;5.10;;;4.60;;
26181;SDS011;13927;51.534;11.866;2022-08-01T02:10:06;6.97;;;4.55;;
26181;SDS011;13927;51.534;11.866;2022-08-01T02:12:35;6.65;;;5.38;;
26181;SDS011;13927;51.534;11.866;2022-08-01T02:15:08;5.82;;;5.32;;
26181;SDS011;13927;51.534;11.866;2022-08-01T02:17:37;5.90;;;4.57;;
26181;SDS011;13927;51.534;11.866;2022-08-01T02:20:10;6.18;;;5.13;;
26181;SDS011;13927;51.534;11.866;2022-08-01T02:22:42;5.20;;;4.70;;
26181;SDS011;13927;51.534;11.866;2022-08-01T02:25:23;6.00;;;5.18;;
26181;SDS011;13927;51.534;11.866;2022-08-01T02:27:59;6.00;;;5.30;;
26181;SDS011;13927;51.534;11.866;2022-08-01T02:30:33;6.70;;;5.45;;
26181;SDS011;13927;51.534;11.866;2022-08-01T02:33:04;7.85;;;5.50;;
26181;SDS011;13927;51.534;11.866;2022-08-01T02:38:04;5.10;;;4.70;;
26181;SDS011;13927;51.534;11.866;2022-08-01T02:40:34;7.05;;;5.25;;
26181;SDS011;13927;51.534;11.866;2022-08-01T02:43:05;5.50;;;5.00;;
26181;SDS011;13927;51.534;11.866;2022-08-01T02:45:37;4.95;;;4.45;;
26181;SDS011;13927;51.534;11.866;2022-08-01T02:48:11;5.55;;;5.05;;
26181;SDS011;13927;51.534;11.866;2022-08-01T02:50:39;5.50;;;5.00;;
26181;SDS011;13927;51.534;11.866;2022-08-01T02:53:11;5.53;;;4.82;;
26181;SDS011;13927;51.534;11.866;2022-08-01T02:55:39;7.95;;;5.50;;
26181;SDS011;13927;51.534;11.866;2022-08-01T02:58:08;5.28;;;4.75;;
26181;SDS011;13927;51.534;11.866;2022-08-01T03:00:37;5.40;;;4.65;;
26181;SDS011;13927;51.534;11.866;2022-08-01T03:03:05;5.35;;;4.85;;
26181;SDS011;13927;51.534;11.866;2022-08-01T03:05:33;5.90;;;4.90;;
26181;SDS011;13927;51.534;11.866;2022-08-01T03:08:01;7.47;;;5.38;;
26181;SDS011;13927;51.534;11.866;2022-08-01T03:10:28;8.10;;;4.88;;
26181;SDS011;13927;51.534;11.866;2022-08-01T03:12:55;5.40;;;4.90;;
26181;SDS011;13927;51.534;11.866;2022-08-01T03:15:26;6.40;;;5.07;;
26181;SDS011;13927;51.534;11.866;2022-08-01T03:17:55;6.57;;;4.78;;
26181;SDS011;13927;51.534;11.866;2022-08-01T03:20:22;5.65;;;4.68;;
26181;SDS011;13927;51.534;11.866;2022-08-01T03:22:50;5.10;;;4.60;;
26181;SDS011;13927;51.534;11.866;2022-08-01T03:25:17;4.57;;;4.18;;
26181;SDS011;13927;51.534;11.866;2022-08-01T03:27:45;5.10;;;4.30;;
26181;SDS011;13927;51.534;11.866;2022-08-01T03:30:19;4.47;;;4.00;;
26181;SDS011;13927;51.534;11.866;2022-08-01T03:32:48;4.30;;;3.90;;
26181;SDS011;13927;51.534;11.866;2022-08-01T03:35:14;4.43;;;3.90;;
26181;SDS011;13927;51.534;11.866;2022-08-01T03:37:44;4.80;;;3.85;;
26181;SDS011;13927;51.534;11.866;2022-08-01T03:40:28;3.85;;;3.55;;
26181;SDS011;13927;51.534;11.866;2022-08-01T03:43:04;4.10;;;3.70;;
26181;SDS011;13927;51.534;11.866;2022-08-01T03:46:02;4.45;;;3.55;;
26181;SDS011;13927;51.534;11.866;2022-08-01T03:48:33;3.72;;;3.22;;
26181;SDS011;13927;51.534;11.866;2022-08-01T03:51:04;4.75;;;3.72;;
26181;SDS011;13927;51.534;11.866;2022-08-01T03:53:31;4.07;;;3.58;;
26181;SDS011;13927;51.534;11.866;2022-08-01T03:56:00;3.55;;;3.25;;
26181;SDS011;13927;51.534;11.866;2022-08-01T03:58:30;4.18;;;3.55;;
26181;SDS011;13927;51.534;11.866;2022-08-01T04:00:56;6.68;;;4.28;;
26181;SDS011;13927;51.534;11.866;2022-08-01T04:03:23;5.10;;;3.72;;
26181;SDS011;13927;51.534;11.866;2022-08-01T04:05:49;5.63;;;3.83;;
26181;SDS011;13927;51.534;11.866;2022-08-01T04:08:15;4.10;;;3.80;;
26181;SDS011;13927;51.534;11.866;2022-08-01T04:10:41;5.15;;;4.65;;
26181;SDS011;13927;51.534;11.866;2022-08-01T04:13:07;4.60;;;4.20;;
26181;SDS011;13927;51.534;11.866;2022-08-01T04:15:32;4.93;;;4.47;;
26181;SDS011;13927;51.534;11.866;2022-08-01T04:17:58;4.75;;;4.07;;
26181;SDS011;13927;51.534;11.866;2022-08-01T04:20:24;3.97;;;3.65;;
26181;SDS011;13927;51.534;11.866;2022-08-01T04:22:49;4.28;;;3.88;;
26181;SDS011;13927;51.534;11.866;2022-08-01T04:25:17;4.00;;;3.60;;
26181;SDS011;13927;51.534;11.866;2022-08-01T04:27:51;3.67;;;3.30;;
26181;SDS011;13927;51.534;11.866;2022-08-01T04:30:20;6.55;;;3.95;;
26181;SDS011;13927;51.534;11.866;2022-08-01T04:32:53;3.20;;;2.90;;
26181;SDS011;13927;51.534;11.866;2022-08-01T04:35:20;3.63;;;3.08;;
26181;SDS011;13927;51.534;11.866;2022-08-01T04:37:47;3.38;;;2.92;;
26181;SDS011;13927;51.534;11.866;2022-08-01T04:40:13;4.38;;;2.97;;
26181;SDS011;13927;51.534;11.866;2022-08-01T04:42:41;5.50;;;3.03;;
26181;SDS011;13927;51.534;11.866;2022-08-01T04:45:07;4.20;;;2.80;;
26181;SDS011;13927;51.534;11.866;2022-08-01T04:47:34;2.97;;;2.75;;
26181;SDS011;13927;51.534;11.866;2022-08-01T04:50:03;3.88;;;2.80;;
26181;SDS011;13927;51.534;11.866;2022-08-01T04:52:35;3.60;;;3.30;;
26181;SDS011;13927;51.534;11.866;2022-08-01T04:55:03;3.25;;;2.92;;
26181;SDS011;13927;51.534;11.866;2022-08-01T04:57:36;4.25;;;3.10;;
26181;SDS011;13927;51.534;11.866;2022-08-01T05:00:06;3.17;;;2.80;;
26181;SDS011;13927;51.534;11.866;2022-08-01T05:02:33;3.95;;;2.83;;
26181;SDS011;13927;51.534;11.866;2022-08-01T05:04:59;4.55;;;2.92;;
26181;SDS011;13927;51.534;11.866;2022-08-01T05:07:24;4.05;;;2.90;;
26181;SDS011;13927;51.534;11.866;2022-08-01T05:09:50;6.55;;;2.90;;
26181;SDS011;13927;51.534;11.866;2022-08-01T05:12:16;2.80;;;2.45;;
26181;SDS011;13927;51.534;11.866;2022-08-01T05:14:42;2.88;;;2.67;;
26181;SDS011;13927;51.534;11.866;2022-08-01T05:17:08;6.53;;;2.80;;
26181;SDS011;13927;51.534;11.866;2022-08-01T05:19:35;3.08;;;2.85;;
26181;SDS011;13927;51.534;11.866;2022-08-01T05:22:03;3.47;;;2.80;;
26181;SDS011;13927;51.534;11.866;2022-08-01T05:24:31;4.43;;;2.75;;
26181;SDS011;13927;51.534;11.866;2022-08-01T05:26:59;3.13;;;2.83;;
26181;SDS011;13927;51.534;11.866;2022-08-01T05:29:25;3.35;;;2.60;;
26181;SDS011;13927;51.534;11.866;2022-08-01T05:31:52;3.85;;;2.80;;
26181;SDS011;13927;51.534;11.866;2022-08-01T05:34:19;3.22;;;2.92;;
26181;SDS011;13927;51.534;11.866;2022-08-01T05:36:45;3.75;;;2.78;;
26181;SDS011;13927;51.534;11.866;2022-08-01T05:39:12;3.80;;;3.20;;
26181;SDS011;13927;51.534;11.866;2022-08-01T05:41:38;3.80;;;2.70;;
26181;SDS011;13927;51.534;11.866;2022-08-01T05:44:05;3.58;;;2.97;;
26181;SDS011;13927;51.534;11.866;2022-08-01T05:46:31;4.05;;;2.40;;
26181;SDS011;13927;51.534;11.866;2022-08-01T05:48:58;2.88;;;2.50;;
26181;SDS011;13927;51.534;11.866;2022-08-01T05:51:25;2.83;;;2.38;;
26181;SDS011;13927;51.534;11.866;2022-08-01T05:53:52;2.70;;;2.45;;
26181;SDS011;13927;51.534;11.866;2022-08-01T05:56:18;2.55;;;2.35;;
26181;SDS011;13927;51.534;11.866;2022-08-01T05:58:45;4.25;;;2.67;;
26181;SDS011;13927;51.534;11.866;2022-08-01T06:01:11;2.50;;;2.30;;
26181;SDS011;13927;51.534;11.866;2022-08-01T06:03:37;4.25;;;2.50;;
26181;SDS011;13927;51.534;11.866;2022-08-01T06:06:03;2.28;;;2.08;;
26181;SDS011;13927;51.534;11.866;2022-08-01T06:08:29;3.55;;;2.08;;
26181;SDS011;13927;51.534;11.866;2022-08-01T06:10:55;2.72;;;2.30;;
26181;SDS011;13927;51.534;11.866;2022-08-01T06:13:21;4.75;;;2.53;;
26181;SDS011;13927;51.534;11.866;2022-08-01T06:15:47;2.67;;;1.95;;
26181;SDS011;13927;51.534;11.866;2022-08-01T06:18:13;2.78;;;2.22;;
26181;SDS011;13927;51.534;11.866;2022-08-01T06:20:39;2.58;;;2.00;;
26181;SDS011;13927;51.534;11.866;2022-08-01T06:23:05;2.35;;;2.10;;
26181;SDS011;13927;51.534;11.866;2022-08-01T06:25:31;4.28;;;2.33;;
26181;SDS011;13927;51.534;11.866;2022-08-01T06:27:58;2.60;;;2.40;;
26181;SDS011;13927;51.534;11.866;2022-08-01T06:30:24;4.78;;;2.40;;
26181;SDS011;13927;51.534;11.866;2022-08-01T06:32:51;5.22;;;2.65;;
26181;SDS011;13927;51.534;11.866;2022-08-01T06:35:17;5.25;;;2.63;;
26181;SDS011;13927;51.534;11.866;2022-08-01T06:37:43;1.70;;;1.45;;
26181;SDS011;13927;51.534;11.866;2022-08-01T06:40:12;3.25;;;1.50;;
26181;SDS011;13927;51.534;11.866;2022-08-01T06:42:38;3.47;;;1.70;;
26181;SDS011;13927;51.534;11.866;2022-08-01T06:45:04;2.60;;;1.65;;
26181;SDS011;13927;51.534;11.866;2022-08-01T06:47:32;2.65;;;1.20;;
26181;SDS011;13927;51.534;11.866;2022-08-01T06:49:58;2.22;;;1.15;;
26181;SDS011;13927;51.534;11.866;2022-08-01T06:52:24;1.25;;;1.10;;
26181;SDS011;13927;51.534;11.866;2022-08-01T06:54:50;1.70;;;1.20;;
26181;SDS011;13927;51.534;11.866;2022-08-01T06:57:16;1.08;;;0.95;;
26181;SDS011;13927;51.534;11.866;2022-08-01T06:59:41;3.33;;;1.10;;
26181;SDS011;13927;51.534;11.866;2022-08-01T07:02:07;2.22;;;1.08;;
26181;SDS011;13927;51.534;11.866;2022-08-01T07:04:33;2.63;;;1.10;;
26181;SDS011;13927;51.534;11.866;2022-08-01T07:06:59;2.58;;;1.30;;
26181;SDS011;13927;51.534;11.866;2022-08-01T07:09:25;1.75;;;1.10;;
26181;SDS011;13927;51.534;11.866;2022-08-01T07:11:52;4.40;;;1.20;;
26181;SDS011;13927;51.534;11.866;2022-08-01T07:14:18;2.95;;;1.20;;
26181;SDS011;13927;51.534;11.866;2022-08-01T07:16:46;3.88;;;1.42;;
26181;SDS011;13927;51.534;11.866;2022-08-01T07:19:12;3.22;;;1.25;;
26181;SDS011;13927;51.534;11.866;2022-08-01T07:21:38;4.13;;;1.30;;
26181;SDS011;13927;51.534;11.866;2022-08-01T07:24:05;4.55;;;1.40;;
26181;SDS011;13927;51.534;11.866;2022-08-01T07:26:32;1.92;;;1.35;;
26181;SDS011;13927;51.534;11.866;2022-08-01T07:28:58;1.25;;;1.15;;
26181;SDS011;13927;51.534;11.866;2022-08-01T07:31:24;1.40;;;1.20;;
26181;SDS011;13927;51.534;11.866;2022-08-01T07:33:50;3.70;;;1.30;;
26181;SDS011;13927;51.534;11.866;2022-08-01T07:36:16;3.53;;;1.50;;
26181;SDS011;13927;51.534;11.866;2022-08-01T07:38:44;1.58;;;1.17;;
26181;SDS011;13927;51.534;11.866;2022-08-01T07:41:11;1.33;;;1.00;;
26181;SDS011;13927;51.534;11.866;2022-08-01T07:43:37;1.95;;;1.02;;
26181;SDS011;13927;51.534;11.866;2022-08-01T07:46:03;1.65;;;1.08;;
26181;SDS011;13927;51.534;11.866;2022-08-01T07:48:29;1.33;;;0.88;;
26181;SDS011;13927;51.534;11.866;2022-08-01T07:50:55;2.28;;;1.20;;
26181;SDS011;13927;51.534;11.866;2022-08-01T07:53:22;2.58;;;1.10;;
26181;SDS011;13927;51.534;11.866;2022-08-01T07:55:48;1.15;;;0.77;;
26181;SDS011;13927;51.534;11.866;2022-08-01T07:58:14;0.30;;;0.30;;
26181;SDS011;13927;51.534;11.866;2022-08-01T08:00:41;0.95;;;0.57;;
26181;SDS011;13927;51.534;11.866;2022-08-01T08:03:07;1.17;;;0.60;;
26181;SDS011;13927;51.534;11.866;2022-08-01T08:05:33;1.20;;;0.68;;
26181;SDS011;13927;51.534;11.866;2022-08-01T08:08:00;0.95;;;0.52;;
26181;SDS011;13927;51.534;11.866;2022-08-01T08:10:30;0.50;;;0.50;;
26181;SDS011;13927;51.534;11.866;2022-08-01T08:12:56;0.40;;;0.40;;
26181;SDS011;13927;51.534;11.866;2022-08-01T08:15:21;2.03;;;0.50;;
26181;SDS011;13927;51.534;11.866;2022-08-01T08:17:48;2.05;;;0.40;;
26181;SDS011;13927;51.534;11.866;2022-08-01T08:20:13;0.73;;;0.50;;
26181;SDS011;13927;51.534;11.866;2022-08-01T08:22:39;2.05;;;0.80;;
26181;SDS011;13927;51.534;11.866;2022-08-01T08:25:05;1.90;;;1.00;;
26181;SDS011;13927;51.534;11.866;2022-08-01T08:27:32;1.90;;;1.00;;
26181;SDS011;13927;51.534;11.866;2022-08-01T08:29:58;1.90;;;0.98;;
26181;SDS011;13927;51.534;11.866;2022-08-01T08:32:24;1.30;;;1.20;;
26181;SDS011;13927;51.534;11.866;2022-08-01T08:34:50;1.58;;;1.10;;
26181;SDS011;13927;51.534;11.866;2022-08-01T08:37:15;1.00;;;0.80;;
26181;SDS011;13927;51.534;11.866;2022-08-01T08:39:42;0.93;;;0.82;;
26181;SDS011;13927;51.534;11.866;2022-08-01T08:42:09;1.10;;;1.00;;
26181;SDS011;13927;51.534;11.866;2022-08-01T08:44:36;1.50;;;0.80;;
26181;SDS011;13927;51.534;11.866;2022-08-01T08:47:03;2.45;;;1.10;;
26181;SDS011;13927;51.534;11.866;2022-08-01T08:49:30;1.30;;;1.00;;
26181;SDS011;13927;51.534;11.866;2022-08-01T08:52:00;1.35;;;0.90;;
26181;SDS011;13927;51.534;11.866;2022-08-01T08:54:27;4.32;;;1.02;;
26181;SDS011;13927;51.534;11.866;2022-08-01T08:56:55;1.40;;;1.10;;
26181;SDS011;13927;51.534;11.866;2022-08-01T08:59:22;1.20;;;1.10;;
26181;SDS011;13927;51.534;11.866;2022-08-01T09:01:51;1.55;;;1.35;;
26181;SDS011;13927;51.534;11.866;2022-08-01T09:04:17;1.90;;;1.73;;
26181;SDS011;13927;51.534;11.866;2022-08-01T09:06:46;2.22;;;1.85;;
26181;SDS011;13927;51.534;11.866;2022-08-01T09:09:11;2.40;;;2.10;;
26181;SDS011;13927;51.534;11.866;2022-08-01T09:11:37;3.72;;;2.17;;
26181;SDS011;13927;51.534;11.866;2022-08-01T09:14:16;3.40;;;2.30;;
26181;SDS011;13927;51.534;11.866;2022-08-01T09:19:36;2.53;;;2.33;;
26181;SDS011;13927;51.534;11.866;2022-08-01T09:22:09;2.35;;;2.13;;
26181;SDS011;13927;51.534;11.866;2022-08-01T09:24:38;2.65;;;2.45;;
26181;SDS011;13927;51.534;11.866;2022-08-01T09:27:21;5.40;;;3.30;;
26181;SDS011;13927;51.534;11.866;2022-08-01T09:29:51;2.65;;;2.45;;
26181;SDS011;13927;51.534;11.866;2022-08-01T09:32:19;2.60;;;2.40;;
26181;SDS011;13927;51.534;11.866;2022-08-01T09:34:45;2.55;;;2.35;;
26181;SDS011;13927;51.534;11.866;2022-08-01T09:37:11;2.75;;;2.55;;
26181;SDS011;13927;51.534;11.866;2022-08-01T09:39:42;3.30;;;3.00;;
26181;SDS011;13927;51.534;11.866;2022-08-01T09:42:23;3.55;;;3.25;;
26181;SDS011;13927;51.534;11.866;2022-08-01T09:44:51;3.72;;;3.42;;
26181;SDS011;13927;51.534;11.866;2022-08-01T09:47:17;3.53;;;3.22;;
26181;SDS011;13927;51.534;11.866;2022-08-01T09:49:45;3.70;;;3.40;;
26181;SDS011;13927;51.534;11.866;2022-08-01T09:52:22;3.63;;;3.33;;
26181;SDS011;13927;51.534;11.866;2022-08-01T09:54:56;4.97;;;3.33;;
26181;SDS011;13927;51.534;11.866;2022-08-01T09:57:28;3.58;;;3.28;;
26181;SDS011;13927;51.534;11.866;2022-08-01T09:59:55;2.83;;;2.63;;
26181;SDS011;13927;51.534;11.866;2022-08-01T10:02:37;2.95;;;2.65;;
26181;SDS011;13927;51.534;11.866;2022-08-01T10:05:06;3.30;;;2.20;;
26181;SDS011;13927;51.534;11.866;2022-08-01T10:07:34;3.50;;;2.00;;
26181;SDS011;13927;51.534;11.866;2022-08-01T10:10:11;1.05;;;0.80;;
26181;SDS011;13927;51.534;11.866;2022-08-01T10:12:39;2.15;;;1.10;;
26181;SDS011;13927;51.534;11.866;2022-08-01T10:15:06;0.63;;;0.60;;
26181;SDS011;13927;51.534;11.866;2022-08-01T10:17:33;0.90;;;0.75;;
26181;SDS011;13927;51.534;11.866;2022-08-01T10:20:02;0.90;;;0.90;;
26181;SDS011;13927;51.534;11.866;2022-08-01T10:22:29;1.60;;;0.73;;
26181;SDS011;13927;51.534;11.866;2022-08-01T10:24:56;3.33;;;1.15;;
26181;SDS011;13927;51.534;11.866;2022-08-01T10:27:27;3.08;;;1.23;;
26181;SDS011;13927;51.534;11.866;2022-08-01T10:29:58;2.10;;;1.48;;
26181;SDS011;13927;51.534;11.866;2022-08-01T10:32:29;1.73;;;1.30;;
26181;SDS011;13927;51.534;11.866;2022-08-01T10:34:58;1.58;;;1.48;;
26181;SDS011;13927;51.534;11.866;2022-08-01T10:37:25;1.10;;;0.98;;
26181;SDS011;13927;51.534;11.866;2022-08-01T10:39:52;1.30;;;1.20;;
26181;SDS011;13927;51.534;11.866;2022-08-01T10:42:19;1.55;;;1.40;;
26181;SDS011;13927;51.534;11.866;2022-08-01T10:44:45;1.70;;;1.45;;
26181;SDS011;13927;51.534;11.866;2022-08-01T10:47:13;1.42;;;1.30;;
26181;SDS011;13927;51.534;11.866;2022-08-01T10:50:27;2.47;;;1.35;;
26181;SDS011;13927;51.534;11.866;2022-08-01T10:58:26;3.60;;;1.73;;
26181;SDS011;13927;51.534;11.866;2022-08-01T11:01:15;4.05;;;2.33;;
26181;SDS011;13927;51.534;11.866;2022-08-01T11:03:57;3.00;;;2.70;;
26181;SDS011;13927;51.534;11.866;2022-08-01T11:09:00;2.97;;;2.78;;
26181;SDS011;13927;51.534;11.866;2022-08-01T11:14:34;1.90;;;1.70;;
26181;SDS011;13927;51.534;11.866;2022-08-01T11:17:41;3.15;;;2.00;;
26181;SDS011;13927;51.534;11.866;2022-08-01T11:20:15;2.25;;;2.05;;
26181;SDS011;13927;51.534;11.866;2022-08-01T11:30:54;2.60;;;1.45;;
26181;SDS011;13927;51.534;11.866;2022-08-01T11:57:22;2.20;;;2.00;;
26181;SDS011;13927;51.534;11.866;2022-08-01T11:59:58;2.10;;;1.90;;
26181;SDS011;13927;51.534;11.866;2022-08-01T12:02:28;2.20;;;2.00;;
26181;SDS011;13927;51.534;11.866;2022-08-01T12:05:06;2.58;;;2.30;;
26181;SDS011;13927;51.534;11.866;2022-08-01T12:07:37;2.33;;;2.15;;
26181;SDS011;13927;51.534;11.866;2022-08-01T12:12:41;1.88;;;1.40;;
26181;SDS011;13927;51.534;11.866;2022-08-01T12:15:15;1.40;;;1.27;;
26181;SDS011;13927;51.534;11.866;2022-08-01T12:18:04;1.88;;;1.30;;
26181;SDS011;13927;51.534;11.866;2022-08-01T12:23:03;1.20;;;1.10;;
26181;SDS011;13927;51.534;11.866;2022-08-01T12:25:34;0.80;;;0.80;;
26181;SDS011;13927;51.534;11.866;2022-08-01T12:28:02;3.30;;;1.00;;
26181;SDS011;13927;51.534;11.866;2022-08-01T12:30:33;2.53;;;1.33;;
26181;SDS011;13927;51.534;11.866;2022-08-01T12:33:02;1.27;;;1.00;;
26181;SDS011;13927;51.534;11.866;2022-08-01T12:35:33;1.67;;;1.20;;
26181;SDS011;13927;51.534;11.866;2022-08-01T12:38:03;3.22;;;1.30;;
26181;SDS011;13927;51.534;11.866;2022-08-01T12:40:33;1.30;;;1.20;;
26181;SDS011;13927;51.534;11.866;2022-08-01T12:43:02;1.52;;;1.42;;
26181;SDS011;13927;51.534;11.866;2022-08-01T12:45:32;2.15;;;1.70;;
26181;SDS011;13927;51.534;11.866;2022-08-01T12:48:13;2.13;;;1.65;;
26181;SDS011;13927;51.534;11.866;2022-08-01T12:50:41;3.30;;;1.63;;
26181;SDS011;13927;51.534;11.866;2022-08-01T12:53:10;2.00;;;1.77;;
26181;SDS011;13927;51.534;11.866;2022-08-01T12:55:45;9.80;;;1.90;;
26181;SDS011;13927;51.534;11.866;2022-08-01T12:58:17;2.85;;;1.35;;
26181;SDS011;13927;51.534;11.866;2022-08-01T13:00:45;1.05;;;0.98;;
26181;SDS011;13927;51.534;11.866;2022-08-01T13:05:50;3.08;;;1.13;;
26181;SDS011;13927;51.534;11.866;2022-08-01T13:08:20;1.70;;;0.90;;
26181;SDS011;13927;51.534;11.866;2022-08-01T13:16:12;1.63;;;1.40;;
26181;SDS011;13927;51.534;11.866;2022-08-01T13:18:39;1.58;;;1.42;;
26181;SDS011;13927;51.534;11.866;2022-08-01T13:21:12;2.47;;;1.70;;
26181;SDS011;13927;51.534;11.866;2022-08-01T13:23:40;3.15;;;1.80;;
26181;SDS011;13927;51.534;11.866;2022-08-01T13:29:29;2.95;;;2.40;;
26181;SDS011;13927;51.534;11.866;2022-08-01T13:32:16;4.60;;;2.85;;
26181;SDS011;13927;51.534;11.866;2022-08-01T13:34:43;2.83;;;2.63;;
26181;SDS011;13927;51.534;11.866;2022-08-01T13:37:09;3.35;;;3.13;;
26181;SDS011;13927;51.534;11.866;2022-08-01T13:39:35;3.33;;;3.03;;
26181;SDS011;13927;51.534;11.866;2022-08-01T13:44:39;3.80;;;3.50;;
26181;SDS011;13927;51.534;11.866;2022-08-01T13:47:05;4.22;;;3.92;;
26181;SDS011;13927;51.534;11.866;2022-08-01T13:49:32;4.28;;;3.97;;
26181;SDS011;13927;51.534;11.866;2022-08-01T13:51:58;4.45;;;4.15;;
26181;SDS011;13927;51.534;11.866;2022-08-01T13:54:25;4.30;;;3.90;;
26181;SDS011;13927;51.534;11.866;2022-08-01T13:56:52;2.90;;;2.70;;
26181;SDS011;13927;51.534;11.866;2022-08-01T13:59:18;3.10;;;2.80;;
26181;SDS011;13927;51.534;11.866;2022-08-01T14:01:44;3.33;;;2.30;;
26181;SDS011;13927;51.534;11.866;2022-08-01T14:04:11;1.85;;;1.67;;
26181;SDS011;13927;51.534;11.866;2022-08-01T14:06:37;2.30;;;1.85;;
26181;SDS011;13927;51.534;11.866;2022-08-01T14:09:03;1.70;;;1.30;;
26181;SDS011;13927;51.534;11.866;2022-08-01T14:11:30;1.48;;;1.30;;
26181;SDS011;13927;51.534;11.866;2022-08-01T14:13:55;3.72;;;1.40;;
26181;SDS011;13927;51.534;11.866;2022-08-01T14:16:22;2.65;;;1.40;;
26181;SDS011;13927;51.534;11.866;2022-08-01T14:18:48;1.70;;;1.38;;
26181;SDS011;13927;51.534;11.866;2022-08-01T14:21:14;8.73;;;1.42;;
26181;SDS011;13927;51.534;11.866;2022-08-01T14:23:40;1.38;;;1.27;;
26181;SDS011;13927;51.534;11.866;2022-08-01T14:26:07;1.63;;;1.23;;
26181;SDS011;13927;51.534;11.866;2022-08-01T14:28:34;2.30;;;1.33;;
26181;SDS011;13927;51.534;11.866;2022-08-01T14:31:02;1.90;;;1.70;;
26181;SDS011;13927;51.534;11.866;2022-08-01T14:33:31;2.80;;;1.70;;
26181;SDS011;13927;51.534;11.866;2022-08-01T14:35:57;1.40;;;1.30;;
26181;SDS011;13927;51.534;11.866;2022-08-01T14:38:23;1.85;;;1.60;;
26181;SDS011;13927;51.534;11.866;2022-08-01T14:40:49;2.33;;;2.13;;
26181;SDS011;13927;51.534;11.866;2022-08-01T14:43:18;2.03;;;1.83;;
26181;SDS011;13927;51.534;11.866;2022-08-01T14:45:44;2.25;;;1.88;;
26181;SDS011;13927;51.534;11.866;2022-08-01T14:48:14;5.13;;;2.58;;
26181;SDS011;13927;51.534;11.866;2022-08-01T14:50:40;4.53;;;2.28;;
26181;SDS011;13927;51.534;11.866;2022-08-01T14:53:06;2.20;;;2.00;;
26181;SDS011;13927;51.534;11.866;2022-08-01T14:55:32;2.25;;;2.00;;
26181;SDS011;13927;51.534;11.866;2022-08-01T14:57:57;2.72;;;2.10;;
26181;SDS011;13927;51.534;11.866;2022-08-01T15:00:23;3.08;;;1.92;;
26181;SDS011;13927;51.534;11.866;2022-08-01T15:02:49;2.10;;;1.90;;
26181;SDS011;13927;51.534;11.866;2022-08-01T15:05:15;2.25;;;1.88;;
26181;SDS011;13927;51.534;11.866;2022-08-01T15:07:41;3.45;;;2.13;;
26181;SDS011;13927;51.534;11.866;2022-08-01T15:10:07;2.25;;;2.05;;
26181;SDS011;13927;51.534;11.866;2022-08-01T15:12:34;2.90;;;2.03;;
26181;SDS011;13927;51.534;11.866;2022-08-01T15:14:59;2.50;;;2.30;;
26181;SDS011;13927;51.534;11.866;2022-08-01T15:17:26;2.63;;;2.42;;
26181;SDS011;13927;51.534;11.866;2022-08-01T15:20:01;2.97;;;2.25;;
26181;SDS011;13927;51.534;11.866;2022-08-01T15:22:30;3.03;;;2.30;;
26181;SDS011;13927;51.534;11.866;2022-08-01T15:24:57;2.28;;;2.05;;
26181;SDS011;13927;51.534;11.866;2022-08-01T15:27:24;2.17;;;1.98;;
26181;SDS011;13927;51.534;11.866;2022-08-01T15:29:51;5.45;;;2.92;;
26181;SDS011;13927;51.534;11.866;2022-08-01T15:32:18;2.15;;;1.92;;
26181;SDS011;13927;51.534;11.866;2022-08-01T15:34:44;1.73;;;1.63;;
26181;SDS011;13927;51.534;11.866;2022-08-01T15:37:10;2.17;;;1.98;;
26181;SDS011;13927;51.534;11.866;2022-08-01T15:39:36;3.35;;;2.05;;
26181;SDS011;13927;51.534;11.866;2022-08-01T15:42:06;1.70;;;1.60;;
26181;SDS011;13927;51.534;11.866;2022-08-01T15:44:35;2.97;;;1.40;;
26181;SDS011;13927;51.534;11.866;2022-08-01T15:47:01;1.67;;;1.50;;
26181;SDS011;13927;51.534;11.866;2022-08-01T15:49:28;2.72;;;1.55;;
26181;SDS011;13927;51.534;11.866;2022-08-01T15:51:54;2.75;;;1.58;;
26181;SDS011;13927;51.534;11.866;2022-08-01T15:54:20;1.40;;;1.30;;
26181;SDS011;13927;51.534;11.866;2022-08-01T15:56:45;1.80;;;1.60;;
26181;SDS011;13927;51.534;11.866;2022-08-01T15:59:11;1.67;;;1.52;;
26181;SDS011;13927;51.534;11.866;2022-08-01T16:01:37;2.20;;;1.42;;